Time;durP1;ratioP1;P1;durP2;ratioP2;P2;SDS_P1;SDS_P2;PMS_P1;PMS_P2;Temp;Humidity;BMP_temperature;BMP_pressure;BME280_temperature;BME280_humidity;BME280_pressure;Samples;Min_cycle;Max_cycle;Signal;HPM_P1;HPM_P2
2022/03/24 00:02:11;;;;;;;5.00;4.47;;;8.90;1.00;;;;;;5070576;28;20260;-69
2022/03/24 00:04:38;;;;;;;5.90;4.33;;;8.80;1.00;;;;;;5070737;28;20210;-69
2022/03/24 00:07:06;;;;;;;7.97;4.83;;;8.70;1.00;;;;;;5070252;28;20244;-69
2022/03/24 00:09:33;;;;;;;5.93;4.60;;;8.70;1.00;;;;;;5070779;28;20256;-69
2022/03/24 00:12:00;;;;;;;6.53;5.93;;;8.60;1.00;;;;;;5070170;28;20589;-69
2022/03/24 00:14:29;;;;;;;7.53;4.40;;;8.70;1.00;;;;;;5070709;28;20286;-68
2022/03/24 00:16:56;;;;;;;5.57;4.80;;;8.70;1.00;;;;;;5070043;28;20258;-68
2022/03/24 00:19:23;;;;;;;6.70;5.63;;;8.60;1.00;;;;;;5072512;28;20286;-68
2022/03/24 00:21:50;;;;;;;7.07;4.50;;;8.60;1.00;;;;;;5074229;28;20628;-69
2022/03/24 00:24:19;;;;;;;5.13;4.47;;;8.60;1.00;;;;;;5074483;28;20293;-68
2022/03/24 00:26:46;;;;;;;7.17;4.60;;;8.60;1.00;;;;;;5074443;28;20248;-68
2022/03/24 00:29:13;;;;;;;7.07;4.70;;;8.50;1.00;;;;;;5074382;28;20601;-69
2022/03/24 00:31:42;;;;;;;10.53;4.10;;;8.50;1.00;;;;;;5074613;28;20695;-68
2022/03/24 00:34:10;;;;;;;5.87;4.77;;;8.50;1.00;;;;;;5074146;28;20256;-68
2022/03/24 00:36:37;;;;;;;9.63;5.47;;;8.40;1.00;;;;;;5074195;28;20322;-69
2022/03/24 00:39:06;;;;;;;8.20;5.20;;;8.40;1.00;;;;;;5073885;28;20665;-68
2022/03/24 00:41:35;;;;;;;9.53;5.43;;;8.30;1.00;;;;;;5074200;28;20202;-68
2022/03/24 00:44:02;;;;;;;5.70;5.10;;;8.30;1.00;;;;;;5073740;28;20210;-70
2022/03/24 00:46:31;;;;;;;8.60;5.93;;;8.20;1.00;;;;;;5074232;28;20255;-70
2022/03/24 00:48:59;;;;;;;10.57;5.40;;;8.10;1.00;;;;;;5073697;28;20206;-68
2022/03/24 00:51:27;;;;;;;5.97;4.20;;;8.20;1.00;;;;;;5073644;28;20221;-68
2022/03/24 00:53:54;;;;;;;6.57;5.43;;;8.20;1.00;;;;;;5073460;28;20202;-68
2022/03/24 00:56:21;;;;;;;6.50;5.90;;;8.10;1.00;;;;;;5073723;28;20292;-68
2022/03/24 00:58:48;;;;;;;5.57;4.63;;;8.10;1.00;;;;;;5073625;28;20238;-68
2022/03/24 01:01:15;;;;;;;8.30;4.97;;;8.10;1.00;;;;;;5074117;28;20203;-68
2022/03/24 01:03:43;;;;;;;9.00;5.50;;;8.20;1.00;;;;;;5074036;28;20263;-68
2022/03/24 01:06:16;;;;;;;8.67;5.20;;;8.00;1.00;;;;;;5073737;28;20206;-68
2022/03/24 01:08:44;;;;;;;6.53;5.13;;;8.10;1.00;;;;;;5073955;28;20202;-68
2022/03/24 01:11:11;;;;;;;6.23;5.63;;;8.10;1.00;;;;;;5073495;28;20662;-68
2022/03/24 01:13:38;;;;;;;7.57;5.77;;;8.10;1.00;;;;;;5073746;28;20666;-68
2022/03/24 01:16:07;;;;;;;5.83;4.87;;;8.00;1.00;;;;;;5073037;28;20636;-68
2022/03/24 01:18:34;;;;;;;7.93;6.30;;;8.00;1.00;;;;;;5073421;28;20225;-68
2022/03/24 01:21:03;;;;;;;7.73;5.50;;;8.10;1.00;;;;;;5073035;28;20202;-68
2022/03/24 01:23:32;;;;;;;9.07;7.53;;;8.00;1.00;;;;;;5073453;28;20198;-68
2022/03/24 01:26:00;;;;;;;6.60;5.30;;;8.10;1.00;;;;;;5072905;28;20268;-68
2022/03/24 01:28:27;;;;;;;6.33;5.27;;;8.00;1.00;;;;;;5073218;28;20204;-68
2022/03/24 01:30:54;;;;;;;9.07;6.50;;;8.00;1.00;;;;;;5072074;28;20199;-68
2022/03/24 01:33:22;;;;;;;6.53;5.57;;;8.00;1.00;;;;;;5073047;28;20206;-68
2022/03/24 01:35:49;;;;;;;5.40;4.83;;;8.00;1.00;;;;;;5072761;28;20213;-68
2022/03/24 01:38:17;;;;;;;11.87;6.07;;;7.90;1.00;;;;;;5073252;28;20258;-68
2022/03/24 01:40:45;;;;;;;7.43;4.93;;;7.90;1.00;;;;;;5073346;28;20249;-68
2022/03/24 01:43:12;;;;;;;7.93;6.07;;;7.80;1.00;;;;;;5073427;28;20236;-68
2022/03/24 01:45:40;;;;;;;9.63;6.93;;;7.80;1.00;;;;;;5073072;28;20279;-69
2022/03/24 01:48:08;;;;;;;6.73;5.40;;;8.00;1.00;;;;;;5072269;28;20241;-68
2022/03/24 01:50:36;;;;;;;7.67;5.93;;;7.80;1.00;;;;;;5072758;28;20310;-69
2022/03/24 01:53:04;;;;;;;6.87;6.17;;;7.80;1.00;;;;;;5072573;28;20206;-69
2022/03/24 01:55:33;;;;;;;8.00;6.50;;;7.80;1.00;;;;;;5073029;28;20228;-69
2022/03/24 01:58:03;;;;;;;7.07;6.20;;;7.80;1.00;;;;;;5072392;28;20685;-69
2022/03/24 02:00:31;;;;;;;6.93;6.23;;;7.70;1.00;;;;;;5072614;28;20291;-69
2022/03/24 02:03:02;;;;;;;7.27;5.27;;;7.80;1.00;;;;;;5071982;28;20198;-69
2022/03/24 02:05:31;;;;;;;10.83;6.57;;;7.80;1.00;;;;;;5072631;28;20293;-69
2022/03/24 02:08:00;;;;;;;7.73;6.73;;;7.80;1.00;;;;;;5072125;28;20551;-68
2022/03/24 02:10:27;;;;;;;11.13;7.40;;;7.70;1.00;;;;;;5072573;28;20210;-68
2022/03/24 02:12:54;;;;;;;7.13;5.73;;;7.80;1.00;;;;;;5071956;28;20304;-68
2022/03/24 02:15:23;;;;;;;7.23;5.93;;;7.70;1.00;;;;;;5071599;28;20206;-68
2022/03/24 02:17:51;;;;;;;7.57;6.77;;;7.80;1.00;;;;;;5071710;28;20202;-68
2022/03/24 02:20:19;;;;;;;7.37;6.67;;;7.80;1.00;;;;;;5072160;28;20240;-68
2022/03/24 02:22:48;;;;;;;8.27;6.93;;;7.80;1.00;;;;;;5072221;28;20206;-67
2022/03/24 02:25:15;;;;;;;7.47;6.17;;;7.80;1.00;;;;;;5072521;28;20202;-69
2022/03/24 02:27:43;;;;;;;6.73;5.93;;;7.80;1.00;;;;;;5072508;28;20202;-69
2022/03/24 02:30:11;;;;;;;9.87;6.73;;;7.70;1.00;;;;;;5071812;28;20208;-70
2022/03/24 02:32:38;;;;;;;8.37;6.37;;;7.80;1.00;;;;;;5071855;28;20577;-70
2022/03/24 02:35:05;;;;;;;7.93;6.70;;;7.80;1.00;;;;;;5071744;28;20228;-70
2022/03/24 02:37:33;;;;;;;7.27;6.30;;;7.80;1.00;;;;;;5072071;28;20251;-69
2022/03/24 02:40:02;;;;;;;8.60;6.90;;;7.70;1.00;;;;;;5071467;28;20315;-70
2022/03/24 02:42:30;;;;;;;10.17;6.57;;;7.70;1.00;;;;;;5070963;28;20287;-70
2022/03/24 02:45:00;;;;;;;7.90;6.20;;;7.70;1.00;;;;;;5071682;28;20279;-69
2022/03/24 02:47:28;;;;;;;7.77;6.27;;;7.80;1.00;;;;;;5071485;28;20747;-68
2022/03/24 02:49:58;;;;;;;7.20;6.47;;;7.70;1.00;;;;;;5071432;28;20214;-68
2022/03/24 02:52:26;;;;;;;10.83;6.27;;;7.70;1.00;;;;;;5071531;28;20202;-67
2022/03/24 02:54:54;;;;;;;8.73;6.70;;;7.70;1.00;;;;;;5071213;28;20260;-69
2022/03/24 02:57:22;;;;;;;8.60;7.33;;;7.80;1.00;;;;;;5071640;28;20208;-68
2022/03/24 02:59:49;;;;;;;8.47;6.27;;;7.80;1.00;;;;;;5071102;28;20291;-67
2022/03/24 03:02:18;;;;;;;9.47;7.73;;;7.70;1.00;;;;;;5071720;28;20203;-68
2022/03/24 03:04:49;;;;;;;10.17;7.50;;;7.80;1.00;;;;;;5071370;28;20624;-68
2022/03/24 03:07:16;;;;;;;7.43;5.97;;;7.90;1.00;;;;;;5071416;28;20209;-68
2022/03/24 03:09:43;;;;;;;9.47;6.97;;;7.90;1.00;;;;;;5071644;28;20230;-67
2022/03/24 03:12:11;;;;;;;12.07;7.93;;;7.80;1.00;;;;;;5071154;28;20220;-67
2022/03/24 03:14:40;;;;;;;7.77;6.70;;;7.70;1.00;;;;;;5071208;28;20673;-68
2022/03/24 03:17:09;;;;;;;9.43;7.70;;;7.70;1.00;;;;;;5070859;28;20207;-68
2022/03/24 03:19:36;;;;;;;14.27;7.80;;;7.70;1.00;;;;;;5071262;28;20238;-68
2022/03/24 03:22:04;;;;;;;7.83;7.03;;;7.70;1.00;;;;;;5070648;28;20555;-68
2022/03/24 03:24:31;;;;;;;10.43;7.13;;;7.80;1.00;;;;;;5071023;28;20604;-67
2022/03/24 03:26:58;;;;;;;9.37;7.67;;;7.80;1.00;;;;;;5070601;28;20744;-68
2022/03/24 03:29:25;;;;;;;8.33;7.13;;;7.70;1.00;;;;;;5070943;28;20206;-68
2022/03/24 03:31:54;;;;;;;9.27;6.80;;;7.60;1.00;;;;;;5070788;28;20247;-68
2022/03/24 03:34:24;;;;;;;14.23;7.10;;;7.60;1.00;;;;;;5071052;28;20208;-68
2022/03/24 03:36:53;;;;;;;9.37;7.20;;;7.60;1.00;;;;;;5070513;28;20240;-68
2022/03/24 03:39:21;;;;;;;8.50;7.17;;;7.70;1.00;;;;;;5071031;28;20312;-68
2022/03/24 03:41:48;;;;;;;13.63;7.73;;;7.60;1.00;;;;;;5070273;28;20666;-68
2022/03/24 03:44:15;;;;;;;10.03;6.27;;;7.60;1.00;;;;;;5070984;28;20665;-68
2022/03/24 03:46:42;;;;;;;8.97;7.47;;;7.40;1.00;;;;;;5071207;28;20247;-68
2022/03/24 03:49:11;;;;;;;8.50;7.67;;;7.40;1.00;;;;;;5070341;28;20250;-68
2022/03/24 03:51:38;;;;;;;10.07;7.57;;;7.50;1.00;;;;;;5070353;28;20210;-68
2022/03/24 03:54:05;;;;;;;9.97;7.53;;;7.50;1.00;;;;;;5070258;28;20317;-68
2022/03/24 03:56:32;;;;;;;9.07;8.17;;;7.40;1.00;;;;;;5070716;28;20232;-67
2022/03/24 03:58:59;;;;;;;8.67;7.10;;;7.30;1.00;;;;;;5070096;28;20198;-68
2022/03/24 04:01:27;;;;;;;9.53;6.93;;;7.30;1.00;;;;;;5070795;28;20252;-68
2022/03/24 04:03:53;;;;;;;8.33;7.37;;;7.30;1.00;;;;;;5070162;28;20581;-68
2022/03/24 04:06:22;;;;;;;10.17;8.17;;;7.30;1.00;;;;;;5070889;28;20202;-68
2022/03/24 04:08:49;;;;;;;11.97;8.10;;;7.20;1.00;;;;;;5070172;28;20574;-68
2022/03/24 04:11:16;;;;;;;8.43;7.63;;;7.20;1.00;;;;;;5070847;28;20268;-68
2022/03/24 04:13:45;;;;;;;9.97;7.30;;;7.20;1.00;;;;;;5070792;28;20202;-68
2022/03/24 04:16:13;;;;;;;10.47;7.80;;;7.30;1.00;;;;;;5070754;28;20233;-68
2022/03/24 04:18:41;;;;;;;9.67;7.87;;;7.30;1.00;;;;;;5071087;28;20212;-68
2022/03/24 04:21:08;;;;;;;11.00;7.77;;;7.30;1.00;;;;;;5070235;28;20238;-68
2022/03/24 04:23:38;;;;;;;10.10;7.43;;;7.20;1.00;;;;;;5070577;28;20212;-70
2022/03/24 04:26:05;;;;;;;10.20;7.83;;;7.20;1.00;;;;;;5070179;28;20198;-69
2022/03/24 04:28:32;;;;;;;12.70;8.27;;;7.20;1.00;;;;;;5070073;28;20233;-68
2022/03/24 04:30:59;;;;;;;8.17;7.10;;;7.20;1.00;;;;;;5069922;28;20252;-68
2022/03/24 04:33:27;;;;;;;9.90;8.90;;;7.10;1.00;;;;;;5070593;28;20206;-69
2022/03/24 04:35:54;;;;;;;9.33;8.03;;;7.20;1.00;;;;;;5070133;28;20260;-69
2022/03/24 04:38:21;;;;;;;9.83;7.70;;;7.20;1.00;;;;;;5070291;28;20545;-69
2022/03/24 04:40:50;;;;;;;8.90;7.60;;;7.10;1.00;;;;;;5069801;28;20662;-69
2022/03/24 04:43:17;;;;;;;10.97;8.10;;;7.20;1.00;;;;;;5070110;28;20256;-67
2022/03/24 04:45:44;;;;;;;10.37;8.43;;;7.10;1.00;;;;;;5070618;28;20198;-67
2022/03/24 04:48:11;;;;;;;13.13;8.70;;;7.10;1.00;;;;;;5070124;28;20610;-68
2022/03/24 04:50:39;;;;;;;11.27;9.70;;;7.20;1.00;;;;;;5070251;28;20224;-69
2022/03/24 04:53:06;;;;;;;12.43;7.93;;;7.10;1.00;;;;;;5069918;28;20202;-68
2022/03/24 04:55:33;;;;;;;11.00;8.57;;;7.20;1.00;;;;;;5070277;28;20252;-68
2022/03/24 04:58:03;;;;;;;13.80;9.73;;;7.20;1.00;;;;;;5069447;28;20198;-68
2022/03/24 05:00:30;;;;;;;10.37;8.80;;;7.10;1.00;;;;;;5070298;28;20277;-68
2022/03/24 05:02:57;;;;;;;10.57;8.23;;;7.10;1.00;;;;;;5069821;28;20255;-68
2022/03/24 05:05:24;;;;;;;10.97;8.60;;;7.00;1.00;;;;;;5070597;28;20199;-68
2022/03/24 05:07:51;;;;;;;7.60;6.80;;;7.00;1.00;;;;;;5073352;28;20198;-68
2022/03/24 05:10:18;;;;;;;12.17;7.83;;;7.00;1.00;;;;;;5073416;28;20221;-69
2022/03/24 05:12:45;;;;;;;10.40;7.77;;;6.90;1.00;;;;;;5074207;28;20206;-68
2022/03/24 05:15:14;;;;;;;12.60;8.67;;;7.00;1.00;;;;;;5073748;28;20248;-68
2022/03/24 05:17:41;;;;;;;9.33;8.40;;;6.90;1.00;;;;;;5073724;28;20202;-68
2022/03/24 05:20:09;;;;;;;11.87;9.13;;;6.90;1.00;;;;;;5073212;28;20237;-68
2022/03/24 05:22:37;;;;;;;14.43;8.17;;;6.90;1.00;;;;;;5073545;28;20236;-69
2022/03/24 05:25:06;;;;;;;11.27;8.60;;;6.90;1.00;;;;;;5072750;28;20619;-68
2022/03/24 05:27:33;;;;;;;10.13;8.30;;;6.90;1.00;;;;;;5073580;28;20210;-69
2022/03/24 05:30:00;;;;;;;13.13;9.10;;;6.90;1.00;;;;;;5073369;28;20673;-69
2022/03/24 05:32:29;;;;;;;10.07;8.43;;;6.80;1.00;;;;;;5086435;28;20292;-69
2022/03/24 05:34:56;;;;;;;12.07;9.03;;;7.00;1.00;;;;;;5089162;28;20259;-69
2022/03/24 05:37:23;;;;;;;14.13;9.87;;;6.90;1.00;;;;;;5079993;28;20202;-68
2022/03/24 05:39:50;;;;;;;9.20;8.27;;;7.00;1.00;;;;;;5081496;28;20221;-68
2022/03/24 05:42:17;;;;;;;16.40;9.80;;;7.00;1.00;;;;;;5093252;28;20263;-69
2022/03/24 05:44:44;;;;;;;10.80;8.30;;;6.90;1.00;;;;;;5093531;28;20668;-69
2022/03/24 05:47:11;;;;;;;9.97;8.97;;;6.90;1.00;;;;;;5089471;28;20685;-68
2022/03/24 05:49:40;;;;;;;9.90;8.53;;;7.00;1.00;;;;;;5075260;28;20689;-69
2022/03/24 05:52:07;;;;;;;8.53;7.63;;;7.00;1.00;;;;;;5085465;28;20786;-69
2022/03/24 05:54:35;;;;;;;10.40;9.30;;;7.00;1.00;;;;;;5080941;28;20272;-68
2022/03/24 05:57:02;;;;;;;13.37;8.37;;;7.00;1.00;;;;;;5071187;28;20630;-69
2022/03/24 05:59:29;;;;;;;9.53;8.17;;;7.00;1.00;;;;;;5071825;28;20245;-69
2022/03/24 06:01:57;;;;;;;13.13;8.70;;;7.10;1.00;;;;;;5071100;28;20226;-69
2022/03/24 06:04:25;;;;;;;12.87;8.50;;;7.00;1.00;;;;;;5071866;28;20669;-69
2022/03/24 06:06:56;;;;;;;10.03;8.73;;;7.10;1.00;;;;;;5088113;28;20673;-69
2022/03/24 06:09:23;;;;;;;12.13;9.13;;;7.20;1.00;;;;;;5092624;28;20205;-69
2022/03/24 06:11:52;;;;;;;9.07;7.93;;;7.20;1.00;;;;;;5092712;28;20630;-69
2022/03/24 06:14:20;;;;;;;10.73;8.87;;;7.30;1.00;;;;;;5083935;28;20213;-69
2022/03/24 06:16:48;;;;;;;14.23;9.40;;;7.30;1.00;;;;;;5071868;28;20198;-68
2022/03/24 06:19:16;;;;;;;9.27;8.30;;;7.30;1.00;;;;;;5072053;28;20202;-68
2022/03/24 06:21:43;;;;;;;12.30;8.93;;;7.30;1.00;;;;;;5072715;28;20234;-68
2022/03/24 06:24:13;;;;;;;10.83;8.23;;;7.40;1.00;;;;;;5072002;28;20206;-68
2022/03/24 06:26:40;;;;;;;9.20;7.80;;;7.50;1.00;;;;;;5072567;28;20226;-69
2022/03/24 06:29:11;;;;;;;10.50;9.40;;;7.70;1.00;;;;;;5087860;28;20210;-69
2022/03/24 06:31:38;;;;;;;12.70;8.43;;;7.70;1.00;;;;;;5083638;28;20213;-69
2022/03/24 06:34:05;;;;;;;12.63;8.33;;;7.80;1.00;;;;;;5091652;28;20652;-69
2022/03/24 06:36:32;;;;;;;11.77;8.57;;;7.90;1.00;;;;;;5081698;28;20214;-70
2022/03/24 06:39:00;;;;;;;10.70;8.83;;;7.90;1.00;;;;;;5071163;28;20669;-70
2022/03/24 06:41:29;;;;;;;10.23;8.80;;;7.90;1.00;;;;;;5084439;28;20240;-70
2022/03/24 06:43:57;;;;;;;14.83;7.80;;;8.20;1.00;;;;;;5078011;28;20618;-71
2022/03/24 06:46:24;;;;;;;9.63;8.00;;;8.10;1.00;;;;;;5071744;28;20728;-70
2022/03/24 06:48:51;;;;;;;9.27;7.87;;;8.10;1.00;;;;;;5086454;28;20213;-69
2022/03/24 06:51:19;;;;;;;10.53;8.57;;;8.30;1.00;;;;;;5091667;28;20209;-70
2022/03/24 06:53:46;;;;;;;9.53;8.10;;;8.30;1.00;;;;;;5088119;28;20212;-71
2022/03/24 06:56:13;;;;;;;17.03;8.30;;;8.40;1.00;;;;;;5077785;28;20263;-71
2022/03/24 06:58:43;;;;;;;10.27;8.20;;;8.50;1.00;;;;;;5092214;28;20205;-73
2022/03/24 07:01:10;;;;;;;9.87;7.23;;;8.70;1.00;;;;;;5075659;28;20234;-71
2022/03/24 07:03:38;;;;;;;12.63;9.13;;;9.10;1.00;;;;;;5080468;28;20234;-71
2022/03/24 07:06:05;;;;;;;8.17;6.73;;;9.00;1.00;;;;;;5090941;28;20206;-71
2022/03/24 07:08:32;;;;;;;8.37;7.07;;;9.00;1.00;;;;;;5091216;28;20205;-72
2022/03/24 07:10:59;;;;;;;13.50;8.00;;;9.20;1.00;;;;;;5083169;28;20214;-71
2022/03/24 07:13:26;;;;;;;8.77;7.13;;;9.40;1.00;;;;;;5079613;28;20699;-71
2022/03/24 07:15:54;;;;;;;8.97;6.83;;;9.40;1.00;;;;;;5087909;28;20719;-71
2022/03/24 07:18:21;;;;;;;8.97;8.07;;;9.40;1.00;;;;;;5081549;28;20205;-70
2022/03/24 07:20:49;;;;;;;9.17;7.30;;;9.50;1.00;;;;;;5085595;28;20277;-71
2022/03/24 07:23:16;;;;;;;10.00;7.43;;;9.60;1.00;;;;;;5083580;28;20738;-70
2022/03/24 07:25:43;;;;;;;9.47;7.73;;;9.80;1.00;;;;;;5081318;28;20658;-70
2022/03/24 07:28:11;;;;;;;10.60;8.07;;;9.90;1.00;;;;;;5081890;28;20212;-69
2022/03/24 07:30:38;;;;;;;12.17;8.70;;;9.90;1.00;;;;;;5088980;28;20572;-70
2022/03/24 07:33:09;;;;;;;12.03;8.00;;;9.90;1.00;;;;;;5088456;28;20281;-72
2022/03/24 07:35:37;;;;;;;10.23;8.20;;;10.00;1.00;;;;;;5080531;28;20202;-72
2022/03/24 07:38:04;;;;;;;8.13;7.37;;;10.20;1.00;;;;;;5090665;28;20201;-71
2022/03/24 07:40:31;;;;;;;8.73;7.37;;;10.30;1.00;;;;;;5090646;28;20316;-71
2022/03/24 07:42:58;;;;;;;8.57;7.43;;;10.40;1.00;;;;;;5088672;28;20730;-70
2022/03/24 07:45:26;;;;;;;10.40;7.40;;;10.50;1.00;;;;;;5069937;28;20209;-70
2022/03/24 07:48:25;;;;;;;9.10;6.77;;;10.70;1.00;;;;;;5073218;28;20665;-70
2022/03/24 07:50:54;;;;;;;9.93;7.60;;;10.80;1.00;;;;;;5056005;28;20300;-70
2022/03/24 07:53:34;;;;;;;9.87;6.87;;;10.90;1.00;;;;;;5080295;28;20201;-71
2022/03/24 07:56:02;;;;;;;9.73;7.20;;;11.10;1.00;;;;;;5083090;28;20204;-71
2022/03/24 07:58:29;;;;;;;9.73;6.50;;;11.10;1.00;;;;;;5088286;28;20212;-73
2022/03/24 08:00:59;;;;;;;7.97;6.27;;;11.40;1.00;;;;;;5077296;28;20271;-73
2022/03/24 08:03:28;;;;;;;10.13;8.17;;;11.30;1.00;;;;;;5078251;28;20291;-73
2022/03/24 08:05:55;;;;;;;8.87;6.20;;;11.40;1.00;;;;;;5075985;28;20210;-72
2022/03/24 08:08:22;;;;;;;6.50;5.90;;;11.60;1.00;;;;;;5078356;28;20205;-73
2022/03/24 08:10:51;;;;;;;6.67;5.73;;;11.70;1.00;;;;;;5077625;28;20261;-73
2022/03/24 08:13:19;;;;;;;9.20;6.53;;;11.70;1.00;;;;;;5084683;28;20250;-72
2022/03/24 08:15:47;;;;;;;7.67;6.87;;;11.50;1.00;;;;;;5075910;28;20206;-73
2022/03/24 08:18:15;;;;;;;8.57;5.87;;;11.50;1.00;;;;;;5082159;28;20684;-74
2022/03/24 08:20:47;;;;;;;8.07;5.93;;;11.80;1.00;;;;;;5090537;28;20220;-73
2022/03/24 08:23:14;;;;;;;19.23;8.97;;;11.80;1.00;;;;;;5079552;28;20242;-73
2022/03/24 08:25:44;;;;;;;7.20;6.23;;;11.80;1.00;;;;;;5076670;28;20205;-72
2022/03/24 08:28:12;;;;;;;7.87;6.03;;;12.20;1.00;;;;;;5085838;28;20289;-73
2022/03/24 08:30:39;;;;;;;7.70;5.90;;;12.00;1.00;;;;;;5079002;28;20210;-73
2022/03/24 08:33:07;;;;;;;9.87;6.03;;;11.90;1.00;;;;;;5086133;28;20205;-72
2022/03/24 08:35:34;;;;;;;10.47;8.23;;;12.00;1.00;;;;;;5089701;28;20250;-73
2022/03/24 08:38:02;;;;;;;6.47;5.87;;;12.10;1.00;;;;;;5089300;28;20220;-73
2022/03/24 08:40:29;;;;;;;7.00;6.27;;;12.20;1.00;;;;;;5090301;28;20206;-73
2022/03/24 08:42:57;;;;;;;10.77;6.80;;;12.50;1.00;;;;;;5093100;28;20734;-73
2022/03/24 08:45:24;;;;;;;7.83;5.57;;;12.50;1.00;;;;;;5091350;28;20255;-73
2022/03/24 08:47:51;;;;;;;8.20;6.10;;;13.00;1.00;;;;;;5072903;28;20228;-74
2022/03/24 08:50:18;;;;;;;7.87;6.23;;;12.50;1.00;;;;;;5083570;28;20634;-73
2022/03/24 08:52:45;;;;;;;6.63;6.03;;;12.70;1.00;;;;;;5080902;28;20206;-73
2022/03/24 08:55:14;;;;;;;7.63;5.23;;;12.70;1.00;;;;;;5084521;28;20201;-72
2022/03/24 08:57:42;;;;;;;12.35;5.97;;;13.10;1.00;;;;;;5093329;28;20263;-73
2022/03/24 09:00:13;;;;;;;6.93;5.47;;;13.20;1.00;;;;;;5089590;28;20280;-73
2022/03/24 09:02:41;;;;;;;10.82;7.03;;;13.10;1.00;;;;;;5079485;28;20268;-72
2022/03/24 09:05:08;;;;;;;6.70;5.75;;;13.50;1.00;;;;;;5086096;28;20206;-73
2022/03/24 09:07:36;;;;;;;6.57;5.85;;;13.20;1.00;;;;;;5092234;28;20205;-73
2022/03/24 09:10:05;;;;;;;5.88;5.00;;;14.10;1.00;;;;;;5091380;28;20197;-73
2022/03/24 09:12:34;;;;;;;7.13;5.28;;;15.10;1.00;;;;;;5094163;28;20213;-72
2022/03/24 09:15:05;;;;;;;8.10;6.03;;;13.90;1.00;;;;;;5093360;28;20202;-73
2022/03/24 09:17:32;;;;;;;7.15;5.30;;;14.30;1.00;;;;;;5093547;28;20201;-74
2022/03/24 09:19:59;;;;;;;5.85;5.25;;;15.40;1.00;;;;;;5093469;28;20198;-72
2022/03/24 09:22:26;;;;;;;6.88;5.53;;;15.40;1.00;;;;;;5093723;28;20229;-73
2022/03/24 09:24:53;;;;;;;6.10;5.57;;;16.20;1.00;;;;;;5093270;28;20206;-73
2022/03/24 09:27:20;;;;;;;8.93;5.88;;;14.10;1.00;;;;;;5093756;28;20622;-73
2022/03/24 09:29:49;;;;;;;6.47;5.38;;;14.20;1.00;;;;;;5093287;28;20209;-72
2022/03/24 09:32:16;;;;;;;6.70;5.20;;;14.10;1.00;;;;;;5093368;28;20205;-72
2022/03/24 09:34:43;;;;;;;9.43;5.78;;;14.50;1.00;;;;;;5093862;28;20198;-73
2022/03/24 09:37:12;;;;;;;7.20;4.68;;;15.00;1.00;;;;;;5093345;28;20730;-72
2022/03/24 09:39:40;;;;;;;6.38;5.60;;;15.60;1.00;;;;;;5093270;28;20568;-73
2022/03/24 09:42:07;;;;;;;8.88;5.95;;;15.90;1.00;;;;;;5093009;28;20241;-73
2022/03/24 09:44:35;;;;;;;8.57;6.03;;;17.10;1.00;;;;;;5093336;28;20660;-71
2022/03/24 09:47:04;;;;;;;7.53;5.22;;;16.10;1.00;;;;;;5092730;28;20643;-72
2022/03/24 09:49:31;;;;;;;5.75;5.22;;;14.90;1.00;;;;;;5093109;28;20263;-72
2022/03/24 09:51:58;;;;;;;8.38;5.22;;;14.50;1.00;;;;;;5092106;28;20619;-72
2022/03/24 09:54:25;;;;;;;6.95;6.10;;;14.40;1.00;;;;;;5093258;28;20260;-72
2022/03/24 09:56:52;;;;;;;6.35;5.35;;;14.90;1.00;;;;;;5092668;28;20292;-71
2022/03/24 09:59:20;;;;;;;10.10;6.07;;;15.00;1.00;;;;;;5093019;28;20255;-72
2022/03/24 10:01:47;;;;;;;6.97;4.78;;;15.10;1.00;;;;;;5092730;28;20239;-71
2022/03/24 10:04:15;;;;;;;7.13;5.78;;;15.10;1.00;;;;;;5092878;28;20209;-74
2022/03/24 10:07:01;;;;;;;6.63;4.97;;;14.80;1.00;;;;;;5093424;28;20261;-71
2022/03/24 10:09:38;;;;;;;6.47;5.53;;;14.80;1.00;;;;;;5092945;28;20547;-72
2022/03/24 10:12:06;;;;;;;5.63;4.97;;;15.50;1.00;;;;;;5092393;28;20267;-72
2022/03/24 10:14:33;;;;;;;5.30;4.43;;;16.10;1.00;;;;;;5092620;28;20258;-70
2022/03/24 10:17:08;;;;;;;7.93;5.63;;;15.80;1.00;;;;;;5098513;28;20283;-69
2022/03/24 10:19:37;;;;;;;6.25;5.50;;;15.50;1.00;;;;;;5097610;28;20288;-70
2022/03/24 10:22:11;;;;;;;6.60;5.88;;;16.80;1.00;;;;;;5092118;28;20704;-71
2022/03/24 10:24:43;;;;;;;6.20;5.60;;;16.60;1.00;;;;;;5091904;28;20288;-69
2022/03/24 10:27:13;;;;;;;7.10;6.40;;;18.10;1.00;;;;;;5091901;28;20210;-70
2022/03/24 10:29:40;;;;;;;6.00;5.40;;;19.80;1.00;;;;;;5092577;28;20236;-70
2022/03/24 10:32:14;;;;;;;6.63;4.75;;;19.80;1.00;;;;;;5089133;28;20209;-70
2022/03/24 10:34:46;;;;;;;5.60;5.07;;;18.50;1.00;;;;;;5092822;28;20299;-69
2022/03/24 10:37:17;;;;;;;5.10;4.55;;;17.80;1.00;;;;;;5092784;28;20580;-70
2022/03/24 10:40:02;;;;;;;6.35;5.75;;;15.80;1.00;;;;;;5092507;28;20201;-70
2022/03/24 10:42:31;;;;;;;5.78;5.28;;;15.50;1.00;;;;;;5092186;28;20269;-69
2022/03/24 10:45:15;;;;;;;5.82;5.22;;;15.00;1.00;;;;;;5091571;28;20254;-72
2022/03/24 10:47:47;;;;;;;6.00;5.13;;;15.00;1.00;;;;;;5086323;28;20213;-72
2022/03/24 10:50:24;;;;;;;4.97;4.47;;;14.70;1.00;;;;;;5079666;28;20693;-72
2022/03/24 10:52:53;;;;;;;8.65;5.35;;;15.20;1.00;;;;;;5078650;28;20233;-72
2022/03/24 10:55:32;;;;;;;6.82;4.50;;;15.30;1.00;;;;;;5084566;28;20263;-72
2022/03/24 10:58:00;;;;;;;5.93;5.00;;;15.20;1.00;;;;;;5071710;28;20266;-72
2022/03/24 11:00:29;;;;;;;6.93;5.15;;;15.40;1.00;;;;;;5083633;28;20206;-71
2022/03/24 11:02:57;;;;;;;5.03;4.53;;;15.50;1.00;;;;;;5082240;28;20614;-72
2022/03/24 11:05:25;;;;;;;6.95;5.40;;;15.50;1.00;;;;;;5082042;28;20206;-72
2022/03/24 11:07:53;;;;;;;6.47;4.63;;;16.10;1.00;;;;;;5090994;28;20210;-72
2022/03/24 11:10:22;;;;;;;7.53;5.32;;;16.00;1.00;;;;;;5087255;28;20255;-72
2022/03/24 11:12:50;;;;;;;7.55;4.68;;;16.20;1.00;;;;;;5086173;28;20662;-72
2022/03/24 11:15:19;;;;;;;9.25;6.15;;;16.10;1.00;;;;;;5076095;28;20347;-72
2022/03/24 11:17:47;;;;;;;6.28;5.07;;;16.30;1.00;;;;;;5091191;28;20681;-72
2022/03/24 11:20:23;;;;;;;5.57;5.03;;;16.20;1.00;;;;;;5088865;28;20210;-72
2022/03/24 11:22:53;;;;;;;8.55;4.57;;;16.10;1.00;;;;;;5086509;28;20233;-72
2022/03/24 11:25:22;;;;;;;6.38;4.97;;;16.20;1.00;;;;;;5082955;28;20673;-72
2022/03/24 11:27:50;;;;;;;5.75;4.60;;;16.00;1.00;;;;;;5090350;28;20750;-72
2022/03/24 11:30:20;;;;;;;6.43;4.97;;;16.00;1.00;;;;;;5083171;28;20197;-73
2022/03/24 11:32:49;;;;;;;9.35;5.57;;;16.20;1.00;;;;;;5086338;28;20636;-72
2022/03/24 11:35:17;;;;;;;6.82;5.72;;;16.30;1.00;;;;;;5078164;28;20204;-72
2022/03/24 11:37:45;;;;;;;5.82;5.25;;;16.10;1.00;;;;;;5084127;28;20259;-71
2022/03/24 11:40:16;;;;;;;5.60;5.10;;;16.50;1.00;;;;;;5078521;28;20202;-72
2022/03/24 11:42:50;;;;;;;5.10;4.60;;;16.40;1.00;;;;;;5082786;28;20598;-73
2022/03/24 11:45:25;;;;;;;5.40;4.72;;;16.40;1.00;;;;;;5079017;28;20198;-73
2022/03/24 11:48:01;;;;;;;5.65;4.50;;;16.60;1.00;;;;;;5080029;28;20205;-72
2022/03/24 11:50:41;;;;;;;6.38;4.85;;;16.70;1.00;;;;;;5070530;28;20252;-73
2022/03/24 11:53:15;;;;;;;4.78;4.40;;;17.00;1.00;;;;;;5070288;28;20680;-73
2022/03/24 11:56:14;;;;;;;5.10;4.68;;;16.90;1.00;;;;;;5071062;28;20214;-72
2022/03/24 11:59:01;;;;;;;5.03;4.53;;;16.60;1.00;;;;;;5070919;28;20202;-72
2022/03/24 12:01:32;;;;;;;4.78;4.32;;;16.70;1.00;;;;;;5058320;28;20272;-72
2022/03/24 12:04:04;;;;;;;6.20;5.10;;;16.40;1.00;;;;;;5082487;28;20304;-71
2022/03/24 12:06:55;;;;;;;5.75;5.25;;;16.50;1.00;;;;;;5074006;28;20217;-71
2022/03/24 12:09:28;;;;;;;5.15;4.10;;;16.60;1.00;;;;;;5090888;28;20262;-71
2022/03/24 12:12:13;;;;;;;5.00;4.00;;;16.50;1.00;;;;;;5084630;28;20214;-71
2022/03/24 12:14:45;;;;;;;5.28;4.70;;;16.60;1.00;;;;;;5071464;28;20661;-72
2022/03/24 12:17:18;;;;;;;5.53;4.50;;;16.80;1.00;;;;;;5075096;28;20205;-72
2022/03/24 12:19:49;;;;;;;5.68;5.07;;;16.10;1.00;;;;;;5082099;28;20205;-72
2022/03/24 12:22:39;;;;;;;5.65;4.53;;;16.30;1.00;;;;;;5090041;28;20229;-73
2022/03/24 12:25:31;;;;;;;5.30;4.38;;;16.60;1.00;;;;;;5086116;28;20651;-72
2022/03/24 12:28:11;;;;;;;9.75;5.47;;;17.00;1.00;;;;;;5081411;28;20209;-72
2022/03/24 12:30:44;;;;;;;4.93;4.47;;;17.00;1.00;;;;;;5094433;28;20208;-72
2022/03/24 12:33:13;;;;;;;5.28;4.70;;;17.50;1.00;;;;;;5074253;28;20730;-72
2022/03/24 12:35:43;;;;;;;4.65;4.25;;;17.10;1.00;;;;;;5075101;28;20289;-73
2022/03/24 12:38:32;;;;;;;7.10;4.18;;;16.80;1.00;;;;;;5078970;28;20206;-72
2022/03/24 12:41:22;;;;;;;4.43;4.03;;;16.30;1.00;;;;;;5092445;28;20237;-71
2022/03/24 12:44:03;;;;;;;5.25;4.75;;;16.50;1.00;;;;;;5088501;28;20711;-72
2022/03/24 12:46:33;;;;;;;7.28;4.82;;;17.10;1.00;;;;;;5088038;28;20205;-72
2022/03/24 12:49:08;;;;;;;4.15;3.83;;;17.60;1.00;;;;;;5089096;28;20209;-72
2022/03/24 12:51:35;;;;;;;6.05;4.03;;;17.70;1.00;;;;;;5075801;28;20637;-72
2022/03/24 12:54:04;;;;;;;8.27;4.90;;;17.20;1.00;;;;;;5089999;28;20669;-71
2022/03/24 12:56:33;;;;;;;6.90;4.13;;;16.90;1.00;;;;;;5077113;28;20206;-72
2022/03/24 12:59:06;;;;;;;4.13;3.75;;;16.90;1.00;;;;;;5091796;28;20201;-69
2022/03/24 13:01:33;;;;;;;8.30;4.15;;;16.50;1.00;;;;;;5093787;28;20216;-70
2022/03/24 13:04:01;;;;;;;6.18;3.63;;;17.00;1.00;;;;;;5093270;28;20228;-72
2022/03/24 13:06:29;;;;;;;6.43;4.68;;;16.80;1.00;;;;;;5094001;28;20255;-73
2022/03/24 13:09:20;;;;;;;5.13;4.10;;;17.00;1.00;;;;;;5093048;28;20665;-72
2022/03/24 13:11:56;;;;;;;4.97;4.28;;;17.10;1.00;;;;;;5089784;28;20681;-73